Sibel J — 5IM270 — position and weather

sailwx.info

Track history (hours):
 
Tides and Currents Weather Stations Pressure Air Temp Water Temp Dewpoint Dewpoint Depression Visibility Wind Speed Wind Dir Waves Ship Positions

Sibel J

Last reported at 2016-Feb-02 18:30 UTC. Time now 2016-Feb-07 15:13 UTC.
Position N 43°47' E 028°44'.

Length 100 m; draft 4.5 m.

Type: Cargo ship. MMSI: 677017000.

Date/timePositionNaut miles runAvg speedWind from/ knotsBaromVisibWave heightAir tempDewpointWater temp
2016-Feb-02 18:30N 43°47' E 028°44'7 7.8
2016-Feb-02 17:33N 43°54' E 028°44'8 7.6
2016-Feb-02 16:33N 44°01' E 028°43'7 7.4
2016-Feb-02 15:33N 44°09' E 028°40'1 1.1
2016-Feb-02 14:26N 44°08' E 028°39'0 0.0
2016-Feb-02 13:26N 44°08' E 028°39'0 0.0
2016-Feb-02 12:26N 44°08' E 028°39'0 0.0
2016-Feb-02 11:26N 44°08' E 028°39'0 0.0
2016-Feb-02 10:26N 44°08' E 028°39'0 0.0
2016-Feb-02 09:29N 44°08' E 028°39'0 0.0
2016-Feb-02 08:29N 44°08' E 028°39'0 0.0
2016-Feb-02 07:29N 44°08' E 028°39'0 0.0
2016-Feb-02 06:29N 44°08' E 028°39'0 0.0
2016-Feb-02 05:26N 44°08' E 028°39'0 0.0
2016-Feb-02 04:32N 44°08' E 028°39'0 0.0
2016-Feb-02 03:32N 44°08' E 028°39'0 0.0
2016-Feb-02 02:32N 44°08' E 028°39'0 0.0
2016-Feb-02 01:32N 44°08' E 028°39'0 0.0
2016-Feb-02 00:32N 44°08' E 028°39'0 0.0
2016-Feb-01 23:31N 44°08' E 028°39'0 0.0
2016-Feb-01 22:28N 44°08' E 028°39'0 0.0
2016-Feb-01 21:31N 44°08' E 028°39'0 0.0
2016-Feb-01 20:19N 44°08' E 028°39'0 0.0
2016-Feb-01 19:31N 44°08' E 028°39'0 0.0
2016-Feb-01 18:31N 44°08' E 028°39'0 0.0
2016-Feb-01 17:31N 44°08' E 028°39'0 0.0
2016-Feb-01 16:31N 44°08' E 028°39'0 0.0
2016-Feb-01 15:22N 44°08' E 028°39'0 0.0
2016-Feb-01 14:22N 44°08' E 028°39'0 0.0
2016-Feb-01 13:22N 44°08' E 028°39'0 0.0
2016-Feb-01 12:25N 44°08' E 028°39'0 0.0
2016-Feb-01 11:25N 44°08' E 028°39'0 0.0
2016-Feb-01 10:25N 44°08' E 028°39'0 0.0
2016-Feb-01 09:25N 44°08' E 028°39'0 0.0
2016-Feb-01 08:25N 44°08' E 028°39'0 0.0
2016-Feb-01 07:28N 44°08' E 028°39'0 0.0
2016-Feb-01 06:28N 44°08' E 028°39'0 0.0
2016-Feb-01 05:28N 44°08' E 028°39'0 0.0
2016-Feb-01 04:28N 44°08' E 028°39'0 0.0
2016-Feb-01 03:28N 44°08' E 028°39'0 0.0
2016-Feb-01 02:31N 44°08' E 028°39'0 0.0
2016-Feb-01 01:31N 44°08' E 028°39'0 0.0
2016-Feb-01 00:31N 44°08' E 028°39'0 0.0
2016-Jan-31 23:31N 44°08' E 028°39'0 0.0
2016-Jan-31 22:31N 44°08' E 028°39'1 1.2
2016-Jan-31 21:33N 44°09' E 028°40'6 5.9
2016-Jan-31 20:33N 44°04' E 028°45'7 6.7
2016-Jan-31 19:33N 43°59' E 028°51'196 7.4
2016-Jan-30 17:08N 40°43' E 028°51'1 0.8
2016-Jan-30 16:30N 40°43' E 028°51'1 0.9
2016-Jan-30 15:23N 40°44' E 028°52'1 0.9
2016-Jan-30 14:33N 40°45' E 028°52'1 0.9
2016-Jan-30 13:32N 40°46' E 028°52'2 0.8
2016-Jan-30 11:20N 40°47' E 028°52'1 0.9
2016-Jan-30 10:14N 40°48' E 028°52'1 0.2
2016-Jan-30 04:21N 40°49' E 028°51'  
Track history (hours):
 
Tides and Currents Weather Stations Pressure Air Temp Water Temp Dewpoint Dewpoint Depression Visibility Wind Speed Wind Dir Waves Ship Positions

Sibel J

Last reported at 2016-Feb-02 18:30 UTC. Time now 2016-Feb-07 15:13 UTC.
Position N 43°47' E 028°44'.

Length 100 m; draft 4.5 m.

Type: Cargo ship. MMSI: 677017000.

Date/timePositionNaut miles runAvg speedWind from/ knotsBaromVisibWave heightAir tempDewpointWater temp
2016-Feb-02 18:30N 43°47' E 028°44'7 7.8
2016-Feb-02 17:33N 43°54' E 028°44'8 7.6
2016-Feb-02 16:33N 44°01' E 028°43'7 7.4
2016-Feb-02 15:33N 44°09' E 028°40'1 1.1
2016-Feb-02 14:26N 44°08' E 028°39'0 0.0
2016-Feb-02 13:26N 44°08' E 028°39'0 0.0
2016-Feb-02 12:26N 44°08' E 028°39'0 0.0
2016-Feb-02 11:26N 44°08' E 028°39'0 0.0
2016-Feb-02 10:26N 44°08' E 028°39'0 0.0
2016-Feb-02 09:29N 44°08' E 028°39'0 0.0
2016-Feb-02 08:29N 44°08' E 028°39'0 0.0
2016-Feb-02 07:29N 44°08' E 028°39'0 0.0
2016-Feb-02 06:29N 44°08' E 028°39'0 0.0
2016-Feb-02 05:26N 44°08' E 028°39'0 0.0
2016-Feb-02 04:32N 44°08' E 028°39'0 0.0
2016-Feb-02 03:32N 44°08' E 028°39'0 0.0
2016-Feb-02 02:32N 44°08' E 028°39'0 0.0
2016-Feb-02 01:32N 44°08' E 028°39'0 0.0
2016-Feb-02 00:32N 44°08' E 028°39'0 0.0
2016-Feb-01 23:31N 44°08' E 028°39'0 0.0
2016-Feb-01 22:28N 44°08' E 028°39'0 0.0
2016-Feb-01 21:31N 44°08' E 028°39'0 0.0
2016-Feb-01 20:19N 44°08' E 028°39'0 0.0
2016-Feb-01 19:31N 44°08' E 028°39'0 0.0
2016-Feb-01 18:31N 44°08' E 028°39'0 0.0
2016-Feb-01 17:31N 44°08' E 028°39'0 0.0
2016-Feb-01 16:31N 44°08' E 028°39'0 0.0
2016-Feb-01 15:22N 44°08' E 028°39'0 0.0
2016-Feb-01 14:22N 44°08' E 028°39'0 0.0
2016-Feb-01 13:22N 44°08' E 028°39'0 0.0
2016-Feb-01 12:25N 44°08' E 028°39'0 0.0
2016-Feb-01 11:25N 44°08' E 028°39'0 0.0
2016-Feb-01 10:25N 44°08' E 028°39'0 0.0
2016-Feb-01 09:25N 44°08' E 028°39'0 0.0
2016-Feb-01 08:25N 44°08' E 028°39'0 0.0
2016-Feb-01 07:28N 44°08' E 028°39'0 0.0
2016-Feb-01 06:28N 44°08' E 028°39'0 0.0
2016-Feb-01 05:28N 44°08' E 028°39'0 0.0
2016-Feb-01 04:28N 44°08' E 028°39'0 0.0
2016-Feb-01 03:28N 44°08' E 028°39'0 0.0
2016-Feb-01 02:31N 44°08' E 028°39'0 0.0
2016-Feb-01 01:31N 44°08' E 028°39'0 0.0
2016-Feb-01 00:31N 44°08' E 028°39'0 0.0
2016-Jan-31 23:31N 44°08' E 028°39'0 0.0
2016-Jan-31 22:31N 44°08' E 028°39'1 1.2
2016-Jan-31 21:33N 44°09' E 028°40'6 5.9
2016-Jan-31 20:33N 44°04' E 028°45'7 6.7
2016-Jan-31 19:33N 43°59' E 028°51'196 7.4
2016-Jan-30 17:08N 40°43' E 028°51'1 0.8
2016-Jan-30 16:30N 40°43' E 028°51'1 0.9
2016-Jan-30 15:23N 40°44' E 028°52'1 0.9
2016-Jan-30 14:33N 40°45' E 028°52'1 0.9
2016-Jan-30 13:32N 40°46' E 028°52'2 0.8
2016-Jan-30 11:20N 40°47' E 028°52'1 0.9
2016-Jan-30 10:14N 40°48' E 028°52'1 0.2
2016-Jan-30 04:21N 40°49' E 028°51'  

Dump ship's entire track history